SCC: VIR: GS final practice times

Pos Num Class Team Time Gap To 1st Speed --- --- ----- ------------------------------ ---------- ------- ------- ------- 1. 5 GS Blackforest Motorsports 2:05.340 93.921 2. 49...

Pos Num Class Team                                 Time     Gap  To 1st   Speed
--- --- ----- ------------------------------ ---------- ------- ------- -------
 1.   5 GS    Blackforest Motorsports          2:05.340                  93.921
 2.  49 GS    Marcus Motorsports               2:05.471   0.131   0.131  93.822
 3.  40 GS    TRG                              2:05.514   0.043   0.174  93.790
 4.  42 GS    TRG                              2:05.571   0.057   0.231  93.748
 5.  39 GS    TRG                              2:05.740   0.169   0.400  93.622
 6. 137 GS    JBS Motorsports                  2:05.878   0.138   0.538  93.519
 7.  38 GS    BGB Motorsports                  2:05.878   0.000   0.538  93.519
 8.  09 GS    Automatic Racing                 2:05.943   0.065   0.603  93.471
 9.  79 GS    Kinetic Motorsports              2:06.122   0.179   0.782  93.338
10.  99 GS    Automatic Racing                 2:06.155   0.033   0.815  93.314
11.  37 GS    JBS Racing                       2:06.280   0.125   0.940  93.221
12.  55 GS    Hyper Sport                      2:06.310   0.030   0.970  93.199
13.  52 GS    Rehagen Racing                   2:06.310   0.000   0.970  93.199
14.  96 GS    Turner Motorsport                2:06.390   0.080   1.050  93.140
15.  80 GS    Kinetic Motorsports              2:06.430   0.040   1.090  93.111
16.  83 GS    BGB Motorsports                  2:06.498   0.068   1.158  93.061
17.  97 GS    Turner Motorsport                2:06.731   0.233   1.391  92.890
18.  91 GS    Automatic Racing                 2:07.022   0.291   1.682  92.677
19.  41 GS    TRG                              2:07.051   0.029   1.711  92.656
20.   4 GS    Blackforest Motorsports          2:07.291   0.240   1.951  92.481
21.  59 GS    Rehagen Racing                   2:07.595   0.304   2.255  92.261
22.  87 GS    Marcus Motorsports               2:07.733   0.138   2.393  92.161
23.  20 GS    Horsepower/Wright Motorsports    2:07.954   0.221   2.614  92.002
24.  28 GS    Fall-Line Motorsports            2:08.144   0.190   2.804  91.865
25.  46 GS    Fall-Line Motorsports            2:08.276   0.132   2.936  91.771
26.   3 GS    Blackforest Motorsports          2:08.328   0.052   2.988  91.734
27.  90 GS    Automatic Racing                 2:08.605   0.277   3.265  91.536
28.  45 GS    Michael Baughman Racing          2:08.963   0.358   3.623  91.282
29.  72 GS    BGB Motorsports                  2:09.057   0.094   3.717  91.216
30.  54 GS    Hyper Sport                      2:09.379   0.322   4.039  90.988
31.  88 GS    Ranger Sports Racing             2:10.609   1.230   5.269  90.132
32.   2 GS    Blackforest Motorsports           No Time
33.  78 GS    Kinetic Motorsports               No Time

Write a comment
Show comments
About this article
Series GRANDAM